createdAt,value
2019-01-28T00:01:11.783Z,77.01
2019-01-28T00:03:40.731Z,77.01
2019-01-28T00:06:09.893Z,76.92
2019-01-28T00:08:38.877Z,76.74
2019-01-28T00:11:08.052Z,77.04
2019-01-28T00:13:36.922Z,77.20
2019-01-28T00:16:05.916Z,76.93
2019-01-28T00:18:34.891Z,77.05
2019-01-28T00:21:03.769Z,76.95
2019-01-28T00:23:32.830Z,77.39
2019-01-28T00:26:01.692Z,76.70
2019-01-28T00:28:30.722Z,76.44
2019-01-28T00:30:59.779Z,76.49
2019-01-28T00:33:28.724Z,76.60
2019-01-28T00:35:57.961Z,76.61
2019-01-28T00:38:27.609Z,76.92
2019-01-28T00:40:56.522Z,76.76
2019-01-28T00:43:25.400Z,77.21
2019-01-28T00:45:54.399Z,77.17
2019-01-28T00:48:23.349Z,77.02
2019-01-28T00:50:52.322Z,77.50
2019-01-28T00:53:21.242Z,77.01
2019-01-28T00:55:50.146Z,77.00
2019-01-28T00:58:19.145Z,76.88
2019-01-28T01:00:48.133Z,76.96
2019-01-28T01:03:16.997Z,77.10
2019-01-28T01:05:46.044Z,76.67
2019-01-28T01:08:14.991Z,76.63
2019-01-28T01:10:43.905Z,76.55
2019-01-28T01:13:12.864Z,77.08
2019-01-28T01:15:41.701Z,77.12
2019-01-28T01:18:10.598Z,77.25
2019-01-28T01:20:39.470Z,77.03
2019-01-28T01:23:08.414Z,77.34
2019-01-28T01:25:37.297Z,76.61
2019-01-28T01:28:06.182Z,76.68
2019-01-28T01:30:35.082Z,76.87
2019-01-28T01:33:04.031Z,76.67
2019-01-28T01:35:32.911Z,76.53
2019-01-28T01:38:01.858Z,76.58
2019-01-28T01:40:30.768Z,76.42
2019-01-28T01:42:59.725Z,76.50
2019-01-28T01:45:28.663Z,76.07
2019-01-28T01:47:57.508Z,76.16
2019-01-28T01:50:26.407Z,75.60
2019-01-28T01:52:55.272Z,75.87
2019-01-28T01:55:24.240Z,75.55
2019-01-28T01:57:53.053Z,76.05
2019-01-28T02:00:22.088Z,75.72
2019-01-28T02:02:51.051Z,75.66
2019-01-28T02:05:19.927Z,76.01
2019-01-28T02:07:48.818Z,75.22
2019-01-28T02:10:18.060Z,75.70
2019-01-28T02:12:46.993Z,75.45
2019-01-28T02:15:17.886Z,75.83
2019-01-28T02:17:46.926Z,76.01
2019-01-28T02:20:16.232Z,75.13
2019-01-28T02:22:45.093Z,75.39
2019-01-28T02:25:14.678Z,75.15
2019-01-28T02:27:43.555Z,74.59
2019-01-28T02:30:14.624Z,74.50
2019-01-28T02:32:43.507Z,74.61
2019-01-28T02:35:12.916Z,74.62
2019-01-28T02:37:41.845Z,74.53
2019-01-28T02:40:13.356Z,75.19
2019-01-28T02:42:42.574Z,75.24
2019-01-28T02:45:12.464Z,74.65
2019-01-28T02:47:41.410Z,74.53
2019-01-28T02:50:13.113Z,74.48
2019-01-28T02:52:42.167Z,74.54
2019-01-28T02:55:11.176Z,74.61
2019-01-28T02:57:40.080Z,74.35
2019-01-28T03:00:22.940Z,74.13
2019-01-28T03:02:51.875Z,74.07
2019-01-28T03:05:20.943Z,74.17
2019-01-28T03:07:49.850Z,74.61
2019-01-28T03:10:20.874Z,74.07
2019-01-28T03:12:49.912Z,74.08
2019-01-28T03:15:19.312Z,74.14
2019-01-28T03:17:48.280Z,74.82
2019-01-28T03:20:17.436Z,74.70
2019-01-28T03:22:46.442Z,75.15
2019-01-28T03:25:15.953Z,75.08
2019-01-28T03:27:44.810Z,75.02
2019-01-28T03:30:16.281Z,75.36
2019-01-28T03:32:45.382Z,75.32
2019-01-28T03:35:14.632Z,74.83
2019-01-28T03:37:43.571Z,75.24
2019-01-28T03:40:15.100Z,75.50
2019-01-28T03:42:44.043Z,75.19
2019-01-28T03:45:15.094Z,75.19
2019-01-28T03:47:44.128Z,75.19
2019-01-28T03:50:14.371Z,75.34
2019-01-28T03:52:43.446Z,75.70
2019-01-28T03:55:12.382Z,75.86
2019-01-28T03:57:41.327Z,75.97
2019-01-28T04:00:13.572Z,76.03
2019-01-28T04:02:42.528Z,75.84
2019-01-28T04:05:11.707Z,76.05
2019-01-28T04:07:40.682Z,76.40
2019-01-28T04:10:11.963Z,76.52
2019-01-28T04:12:40.843Z,76.10
2019-01-28T04:15:13.303Z,75.95
2019-01-28T04:17:42.246Z,76.21
2019-01-28T04:20:12.554Z,75.81
2019-01-28T04:22:41.529Z,76.19
2019-01-28T04:25:11.164Z,76.14
2019-01-28T04:27:40.091Z,76.01
2019-01-28T04:30:12.781Z,76.06
2019-01-28T04:32:41.834Z,75.84
2019-01-28T04:35:10.849Z,76.04
2019-01-28T04:37:39.775Z,76.65
2019-01-28T04:40:09.215Z,76.40
2019-01-28T04:42:38.158Z,76.86
2019-01-28T04:45:09.564Z,76.62
2019-01-28T04:47:38.443Z,76.07
2019-01-28T04:50:09.542Z,76.35
2019-01-28T04:52:38.463Z,76.21
2019-01-28T04:55:07.999Z,76.64
2019-01-28T04:57:36.978Z,76.53
2019-01-28T05:00:09.454Z,76.62
2019-01-28T05:02:38.392Z,76.12
2019-01-28T05:05:07.973Z,75.93
2019-01-28T05:07:36.885Z,76.20
2019-01-28T05:10:06.482Z,76.63
2019-01-28T05:12:35.239Z,76.77
2019-01-28T05:15:04.974Z,76.76
2019-01-28T05:17:33.793Z,76.57
2019-01-28T05:20:02.755Z,76.73
2019-01-28T05:22:31.785Z,76.71
2019-01-28T05:25:00.673Z,76.59
2019-01-28T05:27:29.531Z,76.79
2019-01-28T05:29:58.403Z,76.77
2019-01-28T05:32:27.259Z,76.80
2019-01-28T05:34:56.190Z,76.65
2019-01-28T05:37:25.088Z,76.95
2019-01-28T05:39:54.035Z,77.16
2019-01-28T05:42:22.937Z,77.58
2019-01-28T05:44:51.831Z,77.12
2019-01-28T05:47:20.812Z,77.02
2019-01-28T05:49:49.687Z,76.95
2019-01-28T05:52:18.708Z,76.79
2019-01-28T05:54:47.589Z,77.14
2019-01-28T05:57:16.672Z,77.09
2019-01-28T05:59:45.620Z,77.30
2019-01-28T06:02:14.735Z,77.37
2019-01-28T06:04:43.611Z,77.91
2019-01-28T06:07:12.495Z,77.45
2019-01-28T06:09:41.363Z,77.88
2019-01-28T06:12:10.281Z,77.71
2019-01-28T06:14:39.151Z,77.46
2019-01-28T06:17:08.075Z,77.66
2019-01-28T06:19:36.977Z,77.46
2019-01-28T06:22:05.963Z,77.67
2019-01-28T06:24:34.888Z,77.24
2019-01-28T06:27:03.883Z,76.73
2019-01-28T06:29:32.879Z,76.59
2019-01-28T06:32:01.770Z,77.10
2019-01-28T06:34:30.740Z,77.24
2019-01-28T06:36:59.638Z,77.17
2019-01-28T06:39:28.591Z,76.96
2019-01-28T06:41:57.506Z,77.16
2019-01-28T06:44:26.385Z,77.53
2019-01-28T06:46:55.305Z,77.06
2019-01-28T06:49:24.203Z,76.91
2019-01-28T06:51:53.094Z,77.19
2019-01-28T06:54:22.062Z,77.29
2019-01-28T06:56:51.140Z,77.55
2019-01-28T06:59:20.108Z,77.19
2019-01-28T07:01:50.292Z,77.59
2019-01-28T07:04:19.294Z,77.88
2019-01-28T07:06:48.187Z,77.18
2019-01-28T07:09:44.125Z,77.25
2019-01-28T07:12:13.083Z,77.52
2019-01-28T07:14:42.055Z,77.44
2019-01-28T07:17:11.029Z,77.84
2019-01-28T07:19:39.832Z,78.22
2019-01-28T07:22:08.780Z,78.36
2019-01-28T07:24:37.682Z,78.56
2019-01-28T07:27:06.593Z,78.52
2019-01-28T07:29:35.609Z,78.36
2019-01-28T07:32:04.973Z,77.33
2019-01-28T07:34:33.946Z,77.64
2019-01-28T07:37:02.912Z,77.56
2019-01-28T07:39:31.909Z,77.74
2019-01-28T07:42:00.930Z,77.58
2019-01-28T07:44:29.949Z,78.17
2019-01-28T07:46:58.883Z,78.14
2019-01-28T07:49:27.796Z,78.32
2019-01-28T07:51:56.778Z,78.63
2019-01-28T07:54:25.793Z,79.00
2019-01-28T07:56:54.723Z,78.43
2019-01-28T07:59:23.628Z,78.33
2019-01-28T08:01:52.662Z,78.63
2019-01-28T08:04:21.549Z,78.60
2019-01-28T08:06:59.220Z,78.34
2019-01-28T08:09:21.338Z,78.32
2019-01-28T08:11:50.238Z,79.04
2019-01-28T08:14:19.252Z,79.23
2019-01-28T08:16:48.154Z,78.74
2019-01-28T08:19:17.194Z,79.26
2019-01-28T08:21:46.189Z,79.37
2019-01-28T08:24:15.242Z,79.55
2019-01-28T08:26:44.158Z,79.59
2019-01-28T08:29:13.104Z,79.74
2019-01-28T08:31:42.043Z,80.11
2019-01-28T08:34:11.024Z,80.70
2019-01-28T08:36:55.359Z,80.25
2019-01-28T08:39:24.347Z,80.25
2019-01-28T08:41:53.317Z,80.70
2019-01-28T08:44:22.219Z,80.19
2019-01-28T08:46:51.282Z,80.48
2019-01-28T08:49:20.389Z,80.62
2019-01-28T08:51:49.267Z,80.69
2019-01-28T08:54:18.189Z,80.55
2019-01-28T08:56:47.208Z,80.73
2019-01-28T08:59:16.128Z,80.92
2019-01-28T09:01:45.029Z,81.44
2019-01-28T09:04:13.924Z,81.38
2019-01-28T09:06:42.868Z,81.77
2019-01-28T09:09:12.120Z,81.32
2019-01-28T09:11:41.170Z,81.60
2019-01-28T09:14:10.199Z,82.04
2019-01-28T09:16:39.356Z,81.39
2019-01-28T09:19:08.342Z,81.18
2019-01-28T09:21:37.296Z,81.70
2019-01-28T09:24:06.534Z,81.84
2019-01-28T09:26:35.419Z,81.67
2019-01-28T09:29:04.434Z,82.05
2019-01-28T09:31:33.467Z,82.04
2019-01-28T09:34:02.529Z,81.49
2019-01-28T09:36:31.451Z,81.46
2019-01-28T09:39:24.631Z,81.49
2019-01-28T09:41:53.513Z,81.64
2019-01-28T09:44:22.601Z,81.60
2019-01-28T09:46:51.491Z,81.43
2019-01-28T09:49:20.426Z,81.06
2019-01-28T09:51:49.360Z,81.08
2019-01-28T09:54:18.409Z,80.97
2019-01-28T09:56:47.410Z,81.06
2019-01-28T09:59:16.414Z,81.05
2019-01-28T10:01:45.403Z,80.97
2019-01-28T10:04:14.404Z,81.35
2019-01-28T10:06:43.367Z,81.66
2019-01-28T10:09:12.386Z,81.87
2019-01-28T10:11:41.311Z,81.86
2019-01-28T10:14:10.288Z,81.89
2019-01-28T10:16:39.262Z,80.88
2019-01-28T10:19:08.216Z,80.69
2019-01-28T10:21:37.095Z,80.61
2019-01-28T10:24:06.420Z,80.27
2019-01-28T10:26:35.425Z,80.76
2019-01-28T10:29:04.373Z,80.73
2019-01-28T10:31:33.358Z,80.47
2019-01-28T10:34:02.301Z,80.36
2019-01-28T10:36:34.210Z,80.07
2019-01-28T10:39:02.317Z,79.92
2019-01-28T10:41:31.288Z,80.23
2019-01-28T10:44:00.296Z,80.60
2019-01-28T10:46:29.245Z,79.97
2019-01-28T10:48:58.307Z,79.70
2019-01-28T10:51:28.388Z,80.10
2019-01-28T10:53:57.421Z,80.49
2019-01-28T10:56:26.389Z,80.20
2019-01-28T10:58:55.553Z,80.40
2019-01-28T11:02:12.836Z,80.78
2019-01-28T11:04:41.749Z,79.49
2019-01-28T11:07:10.713Z,79.88
2019-01-28T11:09:39.820Z,80.40
2019-01-28T11:12:08.853Z,80.24
2019-01-28T11:14:38.107Z,80.12
2019-01-28T11:17:07.686Z,79.94
2019-01-28T11:19:36.673Z,80.34
2019-01-28T11:22:05.796Z,79.90
2019-01-28T11:24:34.865Z,80.53
2019-01-28T11:27:04.024Z,80.67
2019-01-28T11:33:02.113Z,80.20
2019-01-28T11:35:31.102Z,80.03
2019-01-28T11:38:00.010Z,79.76
2019-01-28T11:40:29.101Z,79.54
2019-01-28T11:42:58.408Z,79.22
2019-01-28T11:45:29.799Z,79.45
2019-01-28T11:47:58.903Z,79.32
2019-01-28T11:50:28.269Z,79.74
2019-01-28T11:52:57.179Z,80.31
2019-01-28T11:55:26.184Z,80.08
2019-01-28T11:57:55.170Z,80.20
2019-01-28T12:00:29.213Z,79.54
2019-01-28T12:02:58.194Z,79.89
2019-01-28T12:05:27.289Z,79.51
2019-01-28T12:07:56.260Z,79.65
2019-01-28T12:10:26.015Z,79.86
2019-01-28T12:12:55.019Z,80.26
2019-01-28T12:15:24.038Z,80.59
2019-01-28T12:17:53.011Z,80.83
2019-01-28T12:20:23.804Z,80.88
2019-01-28T12:22:52.602Z,79.83
2019-01-28T12:25:21.928Z,80.23
2019-01-28T12:27:51.005Z,80.37
2019-01-28T12:30:25.197Z,80.03
2019-01-28T12:32:54.378Z,80.12
2019-01-28T12:35:23.362Z,79.92
2019-01-28T12:37:52.341Z,79.89
2019-01-28T12:40:21.388Z,79.92
2019-01-28T12:42:52.516Z,80.05
2019-01-28T12:45:21.496Z,79.85
2019-01-28T12:47:50.653Z,80.01
2019-01-28T12:50:20.123Z,80.07
2019-01-28T12:52:49.305Z,79.34
2019-01-28T12:55:18.894Z,79.41
2019-01-28T12:57:48.017Z,79.27
2019-01-28T13:00:19.546Z,79.52
2019-01-28T13:02:48.645Z,79.68
2019-01-28T13:05:19.283Z,79.77
2019-01-28T13:07:48.186Z,79.79
2019-01-28T13:10:21.689Z,79.94
2019-01-28T13:12:50.684Z,79.70
2019-01-28T13:15:22.192Z,79.51
2019-01-28T13:17:51.859Z,79.75
2019-01-28T13:20:20.851Z,79.84
2019-01-28T13:22:49.750Z,79.87
2019-01-28T13:25:21.398Z,79.78
2019-01-28T13:27:50.303Z,79.87
2019-01-28T13:30:21.535Z,79.82
2019-01-28T13:32:50.861Z,79.68
2019-01-28T13:35:19.946Z,79.21
2019-01-28T13:37:48.851Z,79.33
2019-01-28T13:40:17.976Z,79.20
2019-01-28T13:42:47.069Z,79.34
2019-01-28T13:45:17.911Z,79.30
2019-01-28T13:47:47.560Z,79.15
2019-01-28T13:50:19.344Z,78.97
2019-01-28T13:52:49.335Z,78.98
2019-01-28T13:55:19.187Z,79.11
2019-01-28T13:57:48.354Z,79.30
2019-01-28T14:00:19.900Z,79.43
2019-01-28T14:02:49.398Z,79.46
2019-01-28T14:05:18.723Z,79.27
2019-01-28T14:11:16.503Z,79.10
2019-01-28T14:13:45.405Z,79.38
2019-01-28T14:16:14.381Z,79.50
2019-01-28T14:18:43.376Z,79.71
2019-01-28T14:21:12.380Z,79.85
2019-01-28T14:23:41.337Z,80.14
2019-01-28T14:26:10.313Z,80.07
2019-01-28T14:32:07.458Z,80.44
2019-01-28T14:34:36.416Z,80.10
2019-01-28T14:37:05.542Z,79.80
2019-01-28T14:39:34.428Z,79.71
2019-01-28T14:42:03.505Z,79.78
2019-01-28T14:44:32.384Z,79.63
2019-01-28T14:47:01.376Z,79.53
2019-01-28T14:49:32.387Z,79.69
2019-01-28T14:52:00.942Z,79.49
2019-01-28T14:54:29.916Z,79.45
2019-01-28T14:56:58.925Z,79.41
2019-01-28T14:59:27.933Z,79.35
2019-01-28T15:01:56.890Z,79.30
2019-01-28T15:04:25.858Z,79.31
2019-01-28T15:06:54.797Z,79.49
2019-01-28T15:09:23.790Z,79.76
2019-01-28T15:11:54.420Z,79.97
2019-01-28T15:14:23.453Z,80.10
2019-01-28T15:16:52.421Z,79.89
2019-01-28T15:19:21.441Z,79.39
2019-01-28T15:21:50.378Z,79.47
2019-01-28T15:24:20.388Z,79.74
2019-01-28T15:26:50.902Z,79.60
2019-01-28T15:29:20.463Z,79.46
2019-01-28T15:31:49.340Z,79.40
2019-01-28T15:34:18.329Z,79.47
2019-01-28T15:36:47.322Z,79.60
2019-01-28T15:39:16.353Z,79.80
2019-01-28T15:41:45.359Z,79.72
2019-01-28T15:44:14.391Z,79.76
2019-01-28T15:46:43.398Z,79.93
2019-01-28T15:49:12.338Z,79.87
2019-01-28T15:51:41.292Z,79.96
2019-01-28T15:54:10.306Z,80.19
2019-01-28T15:56:39.294Z,80.50
2019-01-28T15:59:08.309Z,80.43
2019-01-28T16:01:37.205Z,80.34
2019-01-28T16:04:06.218Z,80.54
2019-01-28T16:06:35.129Z,80.39
2019-01-28T16:09:06.053Z,80.41
2019-01-28T16:11:35.050Z,80.23
2019-01-28T16:14:04.069Z,80.05
2019-01-28T16:16:33.115Z,79.89
2019-01-28T16:19:02.301Z,79.90
2019-01-28T16:21:31.458Z,79.47
2019-01-28T16:24:00.651Z,79.53
2019-01-28T16:26:30.410Z,79.19
2019-01-28T16:28:59.820Z,78.86
2019-01-28T16:31:30.079Z,78.51
2019-01-28T16:33:59.066Z,78.23
2019-01-28T16:36:28.029Z,78.05
2019-01-28T16:38:56.925Z,78.47
2019-01-28T16:41:26.029Z,79.02
2019-01-28T16:43:55.064Z,79.17
2019-01-28T16:46:24.066Z,79.51
2019-01-28T16:48:53.157Z,79.79
2019-01-28T16:51:22.508Z,80.07
2019-01-28T16:53:51.516Z,80.35
2019-01-28T16:56:20.574Z,80.42
2019-01-28T16:58:49.506Z,80.53
2019-01-28T17:01:18.728Z,80.57
2019-01-28T17:03:47.799Z,80.78
2019-01-28T17:06:16.787Z,80.78
2019-01-28T17:08:45.765Z,80.64
2019-01-28T17:11:14.782Z,80.81
2019-01-28T17:13:43.602Z,81.09
2019-01-28T17:16:12.586Z,80.96
2019-01-28T17:18:41.504Z,80.49
2019-01-28T17:21:10.524Z,80.37
2019-01-28T17:23:39.483Z,79.88
2019-01-28T17:26:08.545Z,79.63
2019-01-28T17:28:37.534Z,78.87
2019-01-28T17:31:07.984Z,78.19
2019-01-28T17:33:39.144Z,78.18
2019-01-28T17:36:08.299Z,78.15
2019-01-28T17:38:37.450Z,77.66
2019-01-28T17:41:06.523Z,77.49
2019-01-28T17:43:35.818Z,77.41
2019-01-28T17:46:04.959Z,77.60
2019-01-28T17:48:34.258Z,77.54
2019-01-28T17:51:51.505Z,77.22
2019-01-28T17:54:20.551Z,77.49
2019-01-28T17:57:07.576Z,77.62
2019-01-28T17:59:36.957Z,77.65
2019-01-28T18:02:06.289Z,77.64
2019-01-28T18:04:35.249Z,77.58
2019-01-28T18:07:04.252Z,77.92
2019-01-28T18:09:33.667Z,78.11
2019-01-28T18:12:02.755Z,78.10
2019-01-28T18:14:31.836Z,77.66
2019-01-28T18:17:00.830Z,77.79
2019-01-28T18:19:29.910Z,77.40
2019-01-28T18:21:58.850Z,77.07
2019-01-28T18:24:27.898Z,77.09
2019-01-28T18:26:57.150Z,77.22
2019-01-28T18:29:26.611Z,76.72
2019-01-28T18:31:56.565Z,77.23
2019-01-28T18:34:26.206Z,77.09
2019-01-28T18:36:55.198Z,77.01
2019-01-28T18:39:24.482Z,76.82
2019-01-28T18:42:12.451Z,77.14
2019-01-28T18:45:00.412Z,77.30
2019-01-28T18:47:48.623Z,77.59
2019-01-28T18:50:59.748Z,77.41
2019-01-28T18:53:48.686Z,76.97
2019-01-28T18:56:36.662Z,77.40
2019-01-28T18:59:05.582Z,77.16
2019-01-28T19:01:53.555Z,77.06
2019-01-28T19:04:41.720Z,76.72
2019-01-28T19:07:50.328Z,76.96
2019-01-28T19:10:38.287Z,76.94
2019-01-28T19:13:26.249Z,77.22
2019-01-28T19:16:14.156Z,77.39
2019-01-28T19:18:50.149Z,77.12
2019-01-28T19:21:57.197Z,77.59
2019-01-28T19:24:45.362Z,77.78
2019-01-28T19:27:33.546Z,77.21
2019-01-28T19:30:02.690Z,77.01
2019-01-28T19:32:50.877Z,77.28
2019-01-28T19:35:19.981Z,77.50
2019-01-28T19:37:48.914Z,77.70
2019-01-28T19:40:17.847Z,77.50
2019-01-28T19:42:47.592Z,77.29
2019-01-28T19:45:19.712Z,76.65
2019-01-28T19:47:48.795Z,76.88
2019-01-28T19:50:20.203Z,76.61
2019-01-28T19:52:49.222Z,76.77
2019-01-28T19:55:18.333Z,76.61
2019-01-28T19:57:47.357Z,76.68
2019-01-28T20:00:27.227Z,76.61
2019-01-28T20:02:58.284Z,77.03
2019-01-28T20:05:27.500Z,77.80
2019-01-28T20:07:56.585Z,77.41
2019-01-28T20:10:25.537Z,77.33
2019-01-28T20:12:54.516Z,77.20
2019-01-28T20:15:23.752Z,76.83
2019-01-28T20:17:52.686Z,77.04
2019-01-28T20:20:21.696Z,76.82
2019-01-28T20:22:50.703Z,76.66
2019-01-28T20:25:20.072Z,77.23
2019-01-28T20:27:49.122Z,76.84
2019-01-28T20:30:20.884Z,76.49
2019-01-28T20:32:49.920Z,76.39
2019-01-28T20:35:19.144Z,76.20
2019-01-28T20:37:48.195Z,76.62
2019-01-28T20:40:17.468Z,76.83
2019-01-28T20:42:46.596Z,76.92
2019-01-28T20:45:17.514Z,76.64
2019-01-28T20:47:46.498Z,76.74
2019-01-28T20:50:18.152Z,76.52
2019-01-28T20:52:47.179Z,76.07
2019-01-28T20:55:16.294Z,75.79
2019-01-28T20:57:45.706Z,76.04
2019-01-28T21:00:19.862Z,75.89
2019-01-28T21:02:48.946Z,75.77
2019-01-28T21:05:18.940Z,75.06
2019-01-28T21:07:48.273Z,75.21
2019-01-28T21:10:19.452Z,74.92
2019-01-28T21:12:48.706Z,74.66
2019-01-28T21:15:18.166Z,74.64
2019-01-28T21:17:47.587Z,74.29
2019-01-28T21:20:18.029Z,73.80
2019-01-28T21:22:47.585Z,73.62
2019-01-28T21:25:21.659Z,73.42
2019-01-28T21:27:50.951Z,73.59
2019-01-28T21:30:25.325Z,73.51
2019-01-28T21:32:54.309Z,73.68
2019-01-28T21:35:46.857Z,73.72
2019-01-28T21:38:20.096Z,74.06
2019-01-28T21:40:49.155Z,73.97
2019-01-28T21:43:18.192Z,74.01
2019-01-28T21:45:47.306Z,73.92
2019-01-28T21:48:16.452Z,73.47
2019-01-28T21:50:45.404Z,73.84
2019-01-28T21:53:14.418Z,73.77
2019-01-28T21:55:43.590Z,73.41
2019-01-28T21:58:12.622Z,73.53
2019-01-28T22:00:41.853Z,73.71
2019-01-28T22:03:10.896Z,73.46
2019-01-28T22:05:40.032Z,73.57
2019-01-28T22:08:09.241Z,73.12
2019-01-28T22:10:40.001Z,73.62
2019-01-28T22:13:09.033Z,73.21
2019-01-28T22:15:38.266Z,73.24
2019-01-28T22:18:07.343Z,73.67
2019-01-28T22:20:36.382Z,73.46
2019-01-28T22:23:05.765Z,73.06
2019-01-28T22:25:35.146Z,73.52
2019-01-28T22:28:04.568Z,73.37
2019-01-28T22:30:33.971Z,73.13
2019-01-28T22:33:03.610Z,73.21
2019-01-28T22:35:32.633Z,73.04
2019-01-28T22:38:13.977Z,73.37
2019-01-28T22:40:42.964Z,73.47
2019-01-28T22:43:11.982Z,73.75
2019-01-28T22:45:40.981Z,73.59
2019-01-28T22:48:09.994Z,73.20
2019-01-28T22:50:39.082Z,73.09
2019-01-28T22:53:08.057Z,73.09
2019-01-28T22:55:37.052Z,73.00
2019-01-28T22:58:06.090Z,73.23
2019-01-28T23:00:51.484Z,73.18
2019-01-28T23:12:41.250Z,73.16
2019-01-28T23:15:10.704Z,73.43
2019-01-28T23:17:40.123Z,72.90
2019-01-28T23:20:09.617Z,73.30
2019-01-28T23:22:38.968Z,73.31
2019-01-28T23:25:08.191Z,73.49
2019-01-28T23:27:37.564Z,73.45
2019-01-28T23:30:07.786Z,73.56
2019-01-28T23:32:37.019Z,73.62
2019-01-28T23:35:07.301Z,73.75
2019-01-28T23:37:36.671Z,73.77
2019-01-28T23:40:06.603Z,73.81
2019-01-28T23:42:37.717Z,74.05
2019-01-28T23:45:27.537Z,74.16
2019-01-28T23:47:56.750Z,74.08
2019-01-28T23:50:25.987Z,73.70
2019-01-28T23:52:55.274Z,73.74
2019-01-28T23:55:24.520Z,73.88
2019-01-28T23:57:56.802Z,74.25
